createdAt,value
2023-02-09T00:00:27.408Z,102005.09
2023-02-09T00:05:23.700Z,102004.22
2023-02-09T00:10:20.134Z,102006.81
2023-02-09T00:15:16.435Z,102004.22
2023-02-09T00:20:12.814Z,102007.69
2023-02-09T00:25:09.156Z,102012.91
2023-02-09T00:30:06.046Z,102008.56
2023-02-09T00:35:02.556Z,102001.59
2023-02-09T00:39:58.861Z,101996.38
2023-02-09T00:44:55.181Z,101999.84
2023-02-09T00:49:51.473Z,101987.66
2023-02-09T00:54:47.781Z,101989.38
2023-02-09T00:59:44.156Z,101979.81
2023-02-09T01:04:40.582Z,101986.78
2023-02-09T01:09:36.943Z,101983.28
2023-02-09T01:14:33.368Z,101985.03
2023-02-09T01:19:29.785Z,101977.19
2023-02-09T01:24:26.534Z,101975.44
2023-02-09T01:29:22.965Z,101978.03
2023-02-09T01:34:19.431Z,101966.78
2023-02-09T01:39:15.836Z,101971.09
2023-02-09T01:44:12.161Z,101973.69
2023-02-09T01:49:16.354Z,101975.41
2023-02-09T01:54:17.003Z,101955.44
2023-02-09T01:59:15.403Z,101951.09
2023-02-09T02:04:12.735Z,101955.44
2023-02-09T02:09:12.618Z,101941.56
2023-02-09T02:14:28.825Z,101937.25
2023-02-09T02:20:01.305Z,101942.41
2023-02-09T02:25:26.783Z,101941.56
2023-02-09T02:30:29.606Z,101924.16
2023-02-09T02:35:35.684Z,101921.53
2023-02-09T02:40:46.319Z,101918.97
2023-02-09T02:46:26.795Z,101913.81
2023-02-09T02:51:30.505Z,101915.47
2023-02-09T02:56:49.709Z,101900.72
2023-02-09T03:01:55.786Z,101903.28
2023-02-09T03:06:52.397Z,101903.28
2023-02-09T03:11:54.523Z,101915.38
2023-02-09T03:17:06.610Z,101907.47
2023-02-09T03:22:33.250Z,101904.84
2023-02-09T03:27:37.602Z,101910.94
2023-02-09T03:32:38.618Z,101901.38
2023-02-09T03:37:34.964Z,101903.94
2023-02-09T03:42:31.339Z,101898.63
2023-02-09T03:47:27.713Z,101892.59
2023-02-09T03:52:24.111Z,101889.19
2023-02-09T03:57:20.494Z,101889.22
2023-02-09T04:02:16.975Z,101885.72
2023-02-09T04:07:13.901Z,101877.94
2023-02-09T04:12:10.448Z,101880.50
2023-02-09T04:17:06.843Z,101883.03
2023-02-09T04:22:03.253Z,101878.56
2023-02-09T04:27:00.038Z,101867.28
2023-02-09T04:31:56.615Z,101867.28
2023-02-09T04:36:53.643Z,101853.47
2023-02-09T04:41:50.002Z,101856.91
2023-02-09T04:46:46.382Z,101847.34
2023-02-09T04:51:42.789Z,101852.53
2023-02-09T04:56:39.158Z,101849.09
2023-02-09T05:01:35.615Z,101847.41
2023-02-09T05:06:32.052Z,101851.59
2023-02-09T05:11:28.440Z,101855.91
2023-02-09T05:16:24.949Z,101846.31
2023-02-09T05:21:21.379Z,101844.69
2023-02-09T05:26:17.884Z,101842.97
2023-02-09T05:31:14.871Z,101829.97
2023-02-09T05:36:12.819Z,101818.69
2023-02-09T05:41:32.037Z,101818.69
2023-02-09T05:46:28.614Z,101820.44
2023-02-09T05:51:24.995Z,101822.34
2023-02-09T05:56:22.573Z,101840.56
2023-02-09T06:01:19.258Z,101843.13
2023-02-09T06:06:15.641Z,101836.00
2023-02-09T06:11:12.020Z,101843.06
2023-02-09T06:16:08.498Z,101839.69
2023-02-09T06:21:06.273Z,101846.47
2023-02-09T06:26:14.021Z,101837.69
2023-02-09T06:31:11.929Z,101855.00
2023-02-09T06:36:09.093Z,101865.38
2023-02-09T06:41:05.774Z,101857.66
2023-02-09T06:46:07.054Z,101855.13
2023-02-09T06:51:08.047Z,101854.22
2023-02-09T06:56:05.786Z,101870.47
2023-02-09T07:01:10.122Z,101883.41
2023-02-09T07:06:15.729Z,101885.16
2023-02-09T07:11:15.353Z,101890.41
2023-02-09T07:16:12.651Z,101896.44
2023-02-09T07:21:15.473Z,101903.50
2023-02-09T07:26:15.408Z,101906.41
2023-02-09T07:31:14.383Z,101898.75
2023-02-09T07:36:11.817Z,101897.06
2023-02-09T07:41:14.109Z,101894.59
2023-02-09T07:46:13.695Z,101880.75
2023-02-09T07:51:19.853Z,101860.84
2023-02-09T07:56:16.779Z,101853.97
2023-02-09T08:01:13.411Z,101845.28
2023-02-09T08:06:40.979Z,101847.91
2023-02-09T08:11:44.694Z,101857.44
2023-02-09T08:16:42.248Z,101873.00
2023-02-09T08:21:41.607Z,101874.66
2023-02-09T08:26:38.736Z,101879.78
2023-02-09T08:31:35.185Z,101877.97
2023-02-09T08:36:31.985Z,101875.25
2023-02-09T08:41:28.334Z,101896.88
2023-02-09T08:46:25.092Z,101895.00
2023-02-09T08:51:21.773Z,101909.69
2023-02-09T08:56:19.642Z,101901.63
2023-02-09T09:01:16.145Z,101915.44
2023-02-09T09:06:12.619Z,101917.00
2023-02-09T09:11:12.935Z,101916.91
2023-02-09T09:16:18.336Z,101918.59
2023-02-09T09:21:17.390Z,101916.78
2023-02-09T09:26:15.911Z,101927.06
2023-02-09T09:31:16.782Z,101928.69
2023-02-09T09:36:14.640Z,101931.16
2023-02-09T09:41:24.449Z,101939.63
2023-02-09T09:46:28.266Z,101914.75
2023-02-09T09:51:44.458Z,101922.38
2023-02-09T09:56:41.645Z,101927.00
2023-02-09T10:01:38.037Z,101934.56
2023-02-09T10:06:34.557Z,101930.88
2023-02-09T10:11:41.556Z,101933.16
2023-02-09T10:16:38.326Z,101929.50
2023-02-09T10:21:36.234Z,101929.56
2023-02-09T10:26:34.574Z,101932.78
2023-02-09T10:31:50.516Z,101927.19
2023-02-09T10:36:52.565Z,101925.38
2023-02-09T10:41:52.478Z,101870.91
2023-02-09T10:46:49.288Z,101889.28
2023-02-09T10:51:45.852Z,101908.50
2023-02-09T10:56:45.294Z,101891.59
2023-02-09T11:01:43.899Z,101877.59
2023-02-09T11:06:52.626Z,101885.16
2023-02-09T11:11:49.078Z,101904.16
2023-02-09T11:17:10.571Z,101893.56
2023-02-09T11:22:37.647Z,101890.88
2023-02-09T11:27:50.834Z,101884.13
2023-02-09T11:33:03.019Z,101861.31
2023-02-09T11:38:05.594Z,101859.03
2023-02-09T11:43:13.495Z,101857.03
2023-02-09T11:48:29.114Z,101859.53
2023-02-09T11:53:28.511Z,101855.94
2023-02-09T11:58:33.957Z,101869.84
2023-02-09T12:03:30.656Z,101862.88
2023-02-09T12:08:44.304Z,101852.50
2023-02-09T12:14:18.218Z,101856.41
2023-02-09T12:19:40.861Z,101853.28
2023-02-09T12:24:40.832Z,101843.25
2023-02-09T12:29:40.097Z,101858.31
2023-02-09T12:34:49.525Z,101859.00
2023-02-09T12:40:04.995Z,101839.53
2023-02-09T12:45:01.564Z,101848.97
2023-02-09T12:50:05.082Z,101844.16
2023-02-09T12:55:17.604Z,101833.59
2023-02-09T13:00:13.973Z,101845.03
2023-02-09T13:05:18.348Z,101835.69
2023-02-09T13:10:27.603Z,101837.75
2023-02-09T13:15:27.752Z,101835.47
2023-02-09T13:20:54.845Z,101834.84
2023-02-09T13:26:00.437Z,101819.97
2023-02-09T13:30:56.884Z,101826.88
2023-02-09T13:36:23.797Z,101815.44
2023-02-09T13:41:33.410Z,101807.56
2023-02-09T13:46:34.449Z,101796.75
2023-02-09T13:51:30.780Z,101800.38
2023-02-09T13:56:28.342Z,101796.00
2023-02-09T14:01:29.791Z,101799.59
2023-02-09T14:06:32.072Z,101795.50
2023-02-09T14:11:42.610Z,101792.69
2023-02-09T14:16:52.659Z,101801.31
2023-02-09T14:21:50.165Z,101791.66
2023-02-09T14:27:07.878Z,101798.25
2023-02-09T14:32:33.578Z,101787.88
2023-02-09T14:37:30.681Z,101790.75
2023-02-09T14:42:32.810Z,101786.13
2023-02-09T14:47:41.256Z,101789.75
2023-02-09T14:52:39.888Z,101789.06
2023-02-09T14:57:38.556Z,101804.13
2023-02-09T15:02:35.060Z,101794.53
2023-02-09T15:07:35.445Z,101803.44
2023-02-09T15:12:32.086Z,101799.28
2023-02-09T15:17:30.473Z,101815.22
2023-02-09T15:22:26.942Z,101803.81
2023-02-09T15:27:34.799Z,101802.78
2023-02-09T15:32:31.121Z,101807.50
2023-02-09T15:37:32.738Z,101806.94
2023-02-09T15:42:47.707Z,101819.25
2023-02-09T15:47:50.387Z,101826.88
2023-02-09T15:52:46.890Z,101840.44
2023-02-09T15:57:43.295Z,101850.25
2023-02-09T16:02:39.653Z,101846.66
2023-02-09T16:07:37.293Z,101854.41
2023-02-09T16:12:34.113Z,101870.66
2023-02-09T16:17:30.431Z,101863.97
2023-02-09T16:22:26.899Z,101881.94
2023-02-09T16:27:26.165Z,101895.41
2023-02-09T16:32:24.462Z,101900.25
2023-02-09T16:37:31.397Z,101913.16
2023-02-09T16:42:29.290Z,101923.25
2023-02-09T16:47:27.388Z,101926.81
2023-02-09T16:52:26.904Z,101931.31
2023-02-09T16:57:25.033Z,101930.22
2023-02-09T17:02:39.872Z,101943.53
2023-02-09T17:07:48.667Z,101949.06
2023-02-09T17:12:48.724Z,101933.91
2023-02-09T17:17:52.898Z,101928.19
2023-02-09T17:22:51.974Z,101932.81
2023-02-09T17:27:48.317Z,101938.19
2023-02-09T17:32:48.427Z,101942.69
2023-02-09T17:37:45.491Z,101940.78
2023-02-09T17:42:42.449Z,101953.84
2023-02-09T17:47:40.373Z,101954.63
2023-02-09T17:52:36.671Z,101951.19
2023-02-09T17:57:33.012Z,101953.00
2023-02-09T18:02:29.367Z,101964.38
2023-02-09T18:07:25.676Z,101966.06
2023-02-09T18:12:25.140Z,101980.56
2023-02-09T18:17:21.445Z,101973.84
2023-02-09T18:22:19.761Z,101985.09
2023-02-09T18:27:24.378Z,101984.81
2023-02-09T18:32:21.221Z,101990.81
2023-02-09T18:37:17.611Z,102001.81
2023-02-09T18:42:15.205Z,102005.56
2023-02-09T18:47:11.790Z,102007.97
2023-02-09T18:52:08.762Z,102013.03
2023-02-09T18:57:05.123Z,102011.44
2023-02-09T19:02:02.559Z,102018.34
2023-02-09T19:06:58.900Z,102025.31
2023-02-09T19:11:55.268Z,102033.78
2023-02-09T19:16:51.608Z,102030.16
2023-02-09T19:21:51.883Z,102027.47
2023-02-09T19:26:48.366Z,102036.16
2023-02-09T19:31:46.269Z,102052.81
2023-02-09T19:36:43.319Z,102048.38
2023-02-09T19:41:39.656Z,102050.13
2023-02-09T19:46:36.088Z,102069.50
2023-02-09T19:51:32.855Z,102077.47
2023-02-09T19:56:29.494Z,102074.97
2023-02-09T20:01:26.902Z,102071.53
2023-02-09T20:06:23.953Z,102061.78
2023-02-09T20:11:20.972Z,102074.91
2023-02-09T20:16:20.329Z,102074.91
2023-02-09T20:21:18.328Z,102078.41
2023-02-09T20:26:18.831Z,102073.22
2023-02-09T20:31:24.400Z,102066.22
2023-02-09T20:36:23.773Z,102068.97
2023-02-09T20:41:21.079Z,102068.22
2023-02-09T20:46:40.016Z,102062.22
2023-02-09T20:51:36.588Z,102064.03
2023-02-09T20:56:33.090Z,102061.47
2023-02-09T21:01:29.418Z,102041.28
2023-02-09T21:06:26.520Z,102051.03
2023-02-09T21:11:22.910Z,102046.72
2023-02-09T21:16:20.371Z,102052.72
2023-02-09T21:21:17.985Z,102045.53
2023-02-09T21:26:16.858Z,102051.53
2023-02-09T21:31:16.503Z,102056.72
2023-02-09T21:36:13.140Z,102054.03
2023-02-09T21:41:35.101Z,102056.41
2023-02-09T21:46:32.288Z,102062.53
2023-02-09T21:51:28.763Z,102061.78
2023-02-09T21:56:26.019Z,102055.56
2023-02-09T22:01:22.441Z,102059.06
2023-02-09T22:06:18.794Z,102055.31
2023-02-09T22:11:15.088Z,102058.88
2023-02-09T22:16:17.943Z,102048.34
2023-02-09T22:21:14.352Z,102065.34
2023-02-09T22:26:13.687Z,102057.41
2023-02-09T22:31:13.509Z,102057.06
2023-02-09T22:36:15.498Z,102056.13
2023-02-09T22:41:23.165Z,102067.44
2023-02-09T22:46:23.549Z,102078.06
2023-02-09T22:51:20.960Z,102086.84
2023-02-09T22:56:17.390Z,102101.69
2023-02-09T23:01:14.579Z,102106.00
2023-02-09T23:06:14.489Z,102107.78
2023-02-09T23:11:17.430Z,102107.75
2023-02-09T23:16:23.600Z,102116.53
2023-02-09T23:21:22.614Z,102117.31
2023-02-09T23:26:20.375Z,102122.56
2023-02-09T23:31:18.643Z,102127.81
2023-02-09T23:36:18.229Z,102129.53
2023-02-09T23:41:16.817Z,102139.22
2023-02-09T23:46:16.079Z,102137.72
2023-02-09T23:51:14.603Z,102140.44
2023-02-09T23:56:13.148Z,102133.41
